Time;durP1;ratioP1;P1;durP2;ratioP2;P2;SDS_P1;SDS_P2;PMS_P1;PMS_P2;Temp;Humidity;BMP_temperature;BMP_pressure;BME280_temperature;BME280_humidity;BME280_pressure;Samples;Min_cycle;Max_cycle;Signal;HPM_P1;HPM_P2
2023/06/10 00:00:06;;;;;;;0.00;0.00;;;;;;;17.90;58.87;98204.75;5010921;28;20697;-63
2023/06/10 00:02:39;;;;;;;0.00;0.00;;;;;;;17.80;58.76;98197.28;5016399;28;20795;-63
2023/06/10 00:05:07;;;;;;;0.00;0.00;;;;;;;17.79;60.67;98200.94;5013157;28;20235;-63
2023/06/10 00:07:37;;;;;;;0.00;0.00;;;;;;;17.74;59.42;98199.91;5014869;28;20263;-63
2023/06/10 00:10:07;;;;;;;0.00;0.00;;;;;;;17.76;60.19;98200.53;5012015;28;20240;-63
2023/06/10 00:12:36;;;;;;;0.00;0.00;;;;;;;17.69;59.72;98190.00;5015525;28;20232;-63
2023/06/10 00:15:04;;;;;;;0.00;0.00;;;;;;;17.72;59.98;98197.50;5011862;28;20692;-63
2023/06/10 00:17:32;;;;;;;0.00;0.00;;;;;;;17.69;61.29;98198.72;5014506;28;20982;-63
2023/06/10 00:19:59;;;;;;;0.00;0.00;;;;;;;17.75;60.93;98197.09;5012542;28;20956;-63
2023/06/10 00:22:29;;;;;;;0.00;0.00;;;;;;;17.72;60.54;98200.16;5016174;28;20235;-63
2023/06/10 00:24:57;;;;;;;0.00;0.00;;;;;;;17.76;60.95;98195.25;4994974;28;20239;-63
2023/06/10 00:27:24;;;;;;;0.00;0.00;;;;;;;17.67;61.32;98192.84;5016488;28;20420;-63
2023/06/10 00:29:50;;;;;;;0.00;0.00;;;;;;;17.67;61.87;98198.13;5000086;28;20236;-63
2023/06/10 00:32:20;;;;;;;0.00;0.00;;;;;;;17.70;61.15;98195.06;4996905;28;20284;-63
2023/06/10 00:34:49;;;;;;;0.00;0.00;;;;;;;17.74;61.83;98199.91;5011924;28;20241;-63
2023/06/10 00:37:15;;;;;;;0.00;0.00;;;;;;;17.82;61.50;98197.88;5010158;28;20690;-63
2023/06/10 00:39:43;;;;;;;0.00;0.00;;;;;;;17.84;61.06;98197.66;4997378;28;20230;-63
2023/06/10 00:42:11;;;;;;;0.00;0.00;;;;;;;17.82;62.13;98197.06;4993317;28;20239;-63
2023/06/10 00:44:37;;;;;;;0.00;0.00;;;;;;;17.74;61.73;98189.38;4995832;28;20726;-63
2023/06/10 00:47:04;;;;;;;0.00;0.00;;;;;;;17.70;62.41;98188.97;4993226;28;20601;-63
2023/06/10 00:49:31;;;;;;;0.00;0.00;;;;;;;17.69;62.72;98187.34;4996908;28;20243;-63
2023/06/10 00:51:58;;;;;;;0.00;0.00;;;;;;;17.60;62.87;98183.31;5012698;28;20232;-63
2023/06/10 00:54:27;;;;;;;0.00;0.00;;;;;;;17.55;62.95;98191.84;5013502;28;20245;-63
2023/06/10 00:56:54;;;;;;;0.00;0.00;;;;;;;17.49;63.30;98188.22;4994714;28;20232;-63
2023/06/10 00:59:23;;;;;;;0.00;0.00;;;;;;;17.47;64.24;98187.63;5013796;28;20591;-63
2023/06/10 01:01:49;;;;;;;0.00;0.00;;;;;;;17.38;64.34;98188.84;5001737;28;20232;-63
2023/06/10 01:04:19;;;;;;;0.00;0.00;;;;;;;17.28;64.11;98191.91;5008685;28;20264;-63
2023/06/10 01:06:57;;;;;;;0.00;0.00;;;;;;;17.23;64.45;98184.59;5012235;28;20245;-63
2023/06/10 01:09:30;;;;;;;0.00;0.00;;;;;;;17.25;64.45;98194.97;5013639;28;20279;-63
2023/06/10 01:12:03;;;;;;;0.00;0.00;;;;;;;17.23;64.59;98181.97;4994863;28;20237;-63
2023/06/10 01:14:35;;;;;;;0.00;0.00;;;;;;;17.23;64.65;98181.16;5012915;28;20263;-63
2023/06/10 01:17:03;;;;;;;0.00;0.00;;;;;;;17.33;64.72;98188.66;4993734;28;20229;-63
2023/06/10 01:19:30;;;;;;;0.00;0.00;;;;;;;17.43;63.26;98180.34;4997934;28;20587;-63
2023/06/10 01:22:00;;;;;;;7.03;6.00;;;;;;;17.49;63.18;98179.50;4995320;28;20344;-63
2023/06/10 01:24:28;;;;;;;8.80;6.87;;;;;;;17.45;64.19;98178.31;4995658;28;20322;-63
2023/06/10 01:26:59;;;;;;;7.93;7.13;;;;;;;17.47;63.90;98178.91;4994061;28;20216;-63
2023/06/10 01:29:32;;;;;;;8.50;7.20;;;;;;;17.52;63.57;98174.63;5004209;28;20232;-63
2023/06/10 01:32:04;;;;;;;8.37;7.07;;;;;;;17.56;63.19;98180.28;5009054;28;20247;-63
2023/06/10 01:34:32;;;;;;;8.87;7.53;;;;;;;17.69;63.15;98185.50;5003076;28;20231;-63
2023/06/10 01:37:01;;;;;;;9.10;7.07;;;;;;;17.69;62.17;98182.88;4999319;28;20296;-63
2023/06/10 01:39:29;;;;;;;10.13;7.70;;;;;;;17.69;62.16;98184.72;4997433;28;20232;-63
2023/06/10 01:42:03;;;;;;;7.63;6.80;;;;;;;17.82;61.11;98194.41;5001928;28;20232;-63
2023/06/10 01:44:30;;;;;;;11.03;7.20;;;;;;;17.84;61.11;98190.56;4995775;28;20232;-63
2023/06/10 01:46:57;;;;;;;11.90;7.03;;;;;;;17.95;60.93;98193.56;5008829;28;20232;-63
2023/06/10 01:49:28;;;;;;;9.33;7.13;;;;;;;17.96;61.37;98189.91;4990787;28;20236;-63
2023/06/10 01:51:55;;;;;;;8.23;7.23;;;;;;;17.97;61.09;98196.81;4993849;28;20323;-63
2023/06/10 01:54:22;;;;;;;8.13;7.17;;;;;;;18.01;61.21;98198.06;5011411;28;20272;-63
2023/06/10 01:56:52;;;;;;;8.00;7.20;;;;;;;18.00;61.90;98196.44;4992333;28;20236;-63
2023/06/10 01:59:18;;;;;;;7.87;7.10;;;;;;;18.00;61.22;98196.44;4995896;28;20224;-63
2023/06/10 02:01:45;;;;;;;10.90;7.50;;;;;;;17.93;61.54;98201.69;4992983;28;20794;-63
2023/06/10 02:04:13;;;;;;;8.20;6.90;;;;;;;17.88;62.00;98198.88;5007533;28;20242;-63
2023/06/10 02:06:39;;;;;;;9.13;7.87;;;;;;;17.87;61.99;98196.44;5015977;28;20233;-63
2023/06/10 02:09:06;;;;;;;10.73;7.10;;;;;;;17.83;62.28;98194.22;4997119;28;20250;-63
2023/06/10 02:11:34;;;;;;;10.40;7.30;;;;;;;17.84;61.85;98195.84;5014165;28;20251;-63
2023/06/10 02:14:00;;;;;;;8.70;6.90;;;;;;;17.91;61.89;98205.56;4996987;28;20226;-63
2023/06/10 02:16:27;;;;;;;8.33;7.30;;;;;;;17.93;61.73;98198.25;4997610;28;20261;-63
2023/06/10 02:18:55;;;;;;;8.83;7.17;;;;;;;18.00;60.99;98207.00;5012723;28;20228;-63
2023/06/10 02:21:22;;;;;;;9.53;7.40;;;;;;;18.05;60.76;98201.88;4993873;28;20250;-63
2023/06/10 02:23:48;;;;;;;9.40;8.27;;;;;;;18.11;60.50;98203.66;4993779;28;20229;-63
2023/06/10 02:26:15;;;;;;;8.57;7.77;;;;;;;18.12;60.93;98200.00;4996628;28;20236;-63
2023/06/10 02:28:45;;;;;;;8.43;7.17;;;;;;;18.10;60.73;98207.31;4999095;28;20870;-63
2023/06/10 02:31:12;;;;;;;8.03;7.00;;;;;;;18.06;61.09;98200.84;4992818;28;20229;-63
2023/06/10 02:33:40;;;;;;;8.10;7.37;;;;;;;18.02;62.16;98204.91;4997027;28;20227;-63
2023/06/10 02:36:12;;;;;;;12.07;8.00;;;;;;;18.03;62.08;98203.09;4995668;28;20764;-63
2023/06/10 02:38:39;;;;;;;10.33;7.73;;;;;;;17.97;62.24;98204.75;4999108;28;20223;-63
2023/06/10 02:41:06;;;;;;;8.80;7.03;;;;;;;17.94;61.99;98205.94;4997452;28;20240;-63
2023/06/10 02:43:34;;;;;;;9.87;7.47;;;;;;;18.00;62.30;98209.63;5005467;28;20242;-63
2023/06/10 02:46:02;;;;;;;9.70;7.30;;;;;;;17.91;62.23;98216.13;4993877;28;20230;-63
2023/06/10 02:48:29;;;;;;;7.97;6.93;;;;;;;17.85;62.85;98212.47;4998956;28;20251;-63
2023/06/10 02:50:56;;;;;;;7.80;6.93;;;;;;;17.79;63.07;98210.66;4995188;28;20359;-63
2023/06/10 02:53:30;;;;;;;7.63;6.83;;;;;;;17.70;63.54;98215.38;4999440;28;20252;-63
2023/06/10 02:56:04;;;;;;;8.57;6.97;;;;;;;17.62;65.17;98216.41;4998738;28;20231;-63
2023/06/10 02:58:32;;;;;;;7.77;6.70;;;;;;;17.47;66.14;98216.63;4999859;28;20243;-63
2023/06/10 03:00:59;;;;;;;7.87;7.07;;;;;;;17.33;66.99;98228.22;5001492;28;20674;-63
2023/06/10 03:03:30;;;;;;;9.23;7.40;;;;;;;17.17;67.89;98218.91;4999576;28;20312;-63
2023/06/10 03:06:05;;;;;;;10.50;7.43;;;;;;;16.97;68.65;98219.72;5003255;28;20549;-63
2023/06/10 03:08:33;;;;;;;9.47;7.33;;;;;;;16.83;70.00;98222.31;5018300;28;20244;-63
2023/06/10 03:11:04;;;;;;;9.90;7.10;;;;;;;16.67;69.85;98222.69;4997360;28;21110;-63
2023/06/10 03:13:32;;;;;;;9.30;7.17;;;;;;;16.57;70.92;98220.44;4998128;28;20225;-63
2023/06/10 03:15:59;;;;;;;8.67;7.37;;;;;;;16.53;71.35;98224.50;5003511;28;20236;-63
2023/06/10 03:18:29;;;;;;;9.27;7.67;;;;;;;16.53;72.30;98229.75;4995786;28;20255;-63
2023/06/10 03:20:57;;;;;;;8.90;7.60;;;;;;;16.45;71.95;98233.38;5007806;28;20335;-63
2023/06/10 03:23:28;;;;;;;9.67;7.70;;;;;;;16.41;72.14;98233.97;4994142;28;20238;-63
2023/06/10 03:25:56;;;;;;;8.87;7.47;;;;;;;16.35;72.67;98238.25;4993840;28;20732;-63
2023/06/10 03:28:23;;;;;;;11.60;8.27;;;;;;;16.29;73.96;98231.13;5014739;28;20293;-63
2023/06/10 03:30:53;;;;;;;9.33;7.70;;;;;;;16.25;74.98;98237.78;5208116;23;20284;-63
2023/06/10 03:33:23;;;;;;;8.87;7.97;;;;;;;16.17;74.78;98236.97;4991769;28;20224;-63
2023/06/10 03:35:51;;;;;;;9.33;8.30;;;;;;;16.12;75.53;98238.53;4974959;28;20231;-63
2023/06/10 03:38:18;;;;;;;10.90;7.93;;;;;;;16.10;75.52;98230.84;4991521;28;20282;-63
2023/06/10 03:40:46;;;;;;;8.83;7.37;;;;;;;16.04;75.44;98240.31;4990328;28;20322;-63
2023/06/10 03:43:14;;;;;;;12.47;7.73;;;;;;;16.01;75.86;98238.09;4979708;28;20236;-63
2023/06/10 03:45:42;;;;;;;10.07;8.17;;;;;;;16.00;76.44;98240.94;4994949;28;20231;-63
2023/06/10 03:48:09;;;;;;;9.37;8.00;;;;;;;15.98;75.50;98243.75;4992505;28;20236;-63
2023/06/10 03:50:44;;;;;;;9.70;7.60;;;;;;;16.00;75.26;98244.34;4978840;28;20728;-63
2023/06/10 03:53:12;;;;;;;9.77;8.27;;;;;;;16.09;75.03;98251.09;4974575;28;20233;-63
2023/06/10 03:55:41;;;;;;;10.10;7.77;;;;;;;16.17;74.95;98249.28;4983397;28;20309;-63
2023/06/10 03:58:08;;;;;;;9.43;8.43;;;;;;;16.15;75.34;98252.13;4988242;28;20233;-63
2023/06/10 04:00:41;;;;;;;8.70;7.80;;;;;;;16.17;75.80;98254.56;4978004;28;20232;-63
2023/06/10 04:03:09;;;;;;;9.97;7.77;;;;;;;16.13;77.40;98256.78;4989841;28;20242;-63
2023/06/10 04:05:39;;;;;;;9.67;8.67;;;;;;;16.11;76.84;98255.34;4977020;28;20250;-63
2023/06/10 04:08:06;;;;;;;9.30;8.40;;;;;;;16.11;77.11;98253.53;4972096;28;20293;-63
2023/06/10 04:10:34;;;;;;;8.83;7.93;;;;;;;16.12;77.07;98254.34;4980752;28;20708;-63
2023/06/10 04:13:01;;;;;;;10.30;8.60;;;;;;;16.11;78.71;98255.34;4984360;28;20242;-63
2023/06/10 04:15:33;;;;;;;8.80;7.80;;;;;;;16.09;78.32;98255.56;4980617;28;20235;-63
2023/06/10 04:18:04;;;;;;;10.67;8.77;;;;;;;16.11;78.76;98247.44;4976514;28;20322;-63
2023/06/10 04:20:32;;;;;;;12.23;8.30;;;;;;;16.13;77.26;98262.06;4979498;28;20303;-63
2023/06/10 04:22:59;;;;;;;9.53;8.53;;;;;;;16.15;78.16;98265.31;4992786;28;20582;-63
2023/06/10 04:25:27;;;;;;;8.70;7.80;;;;;;;16.15;78.43;98275.84;4978253;28;20231;-63
2023/06/10 04:27:55;;;;;;;10.17;8.30;;;;;;;16.13;79.58;98269.13;4973213;28;20836;-63
2023/06/10 04:30:22;;;;;;;9.33;7.53;;;;;;;16.15;80.97;98267.94;4976068;28;20259;-63
2023/06/10 04:32:50;;;;;;;12.07;8.93;;;;;;;16.11;81.69;98266.69;4970410;28;20243;-63
2023/06/10 04:35:18;;;;;;;10.57;8.70;;;;;;;16.17;83.22;98273.81;4978205;28;20236;-63
2023/06/10 04:37:46;;;;;;;9.30;8.33;;;;;;;16.16;82.37;98266.09;4975477;28;20912;-63
2023/06/10 04:40:15;;;;;;;9.13;8.23;;;;;;;16.12;82.18;98270.97;4978097;28;20683;-63
2023/06/10 04:42:42;;;;;;;9.33;8.37;;;;;;;16.15;82.14;98272.38;4976109;28;20227;-63
2023/06/10 04:45:13;;;;;;;12.27;8.40;;;;;;;16.18;83.02;98278.06;4973706;28;20234;-63
2023/06/10 04:47:41;;;;;;;11.83;8.00;;;;;;;16.29;80.75;98279.31;4983446;28;20238;-63
2023/06/10 04:50:08;;;;;;;11.43;8.13;;;;;;;16.37;80.81;98281.00;4980741;28;20221;-63
2023/06/10 04:52:35;;;;;;;10.13;8.97;;;;;;;16.40;80.91;98282.41;4972409;28;20247;-63
2023/06/10 04:55:02;;;;;;;9.70;8.00;;;;;;;16.41;81.64;98278.75;4972967;28;20227;-63
2023/06/10 04:57:29;;;;;;;13.10;8.63;;;;;;;16.39;82.65;98278.97;4993732;28;20282;-63
2023/06/10 04:59:55;;;;;;;9.13;7.73;;;;;;;16.43;82.79;98282.81;4991615;28;20239;-63
2023/06/10 05:02:23;;;;;;;9.80;8.60;;;;;;;16.42;82.73;98286.47;4993704;28;20247;-63
2023/06/10 05:04:50;;;;;;;10.93;9.47;;;;;;;16.45;83.02;98288.69;4987454;28;20326;-63
2023/06/10 05:07:16;;;;;;;10.57;9.40;;;;;;;16.48;81.87;98290.94;4994255;28;20243;-63
2023/06/10 05:09:49;;;;;;;10.20;9.17;;;;;;;16.44;83.07;98294.19;4991252;28;20235;-63
2023/06/10 05:12:15;;;;;;;9.93;8.93;;;;;;;16.45;82.99;98291.34;4972036;28;20239;-63
2023/06/10 05:15:08;;;;;;;11.53;8.80;;;;;;;16.41;83.34;98290.13;4991023;28;20243;-63
2023/06/10 05:17:36;;;;;;;10.10;8.83;;;;;;;16.42;83.59;98297.03;4992742;28;20232;-63
2023/06/10 05:20:03;;;;;;;11.30;9.40;;;;;;;16.40;84.29;98301.69;4984045;28;20314;-63
2023/06/10 05:22:29;;;;;;;10.90;9.10;;;;;;;16.33;85.78;98298.19;4993248;28;20247;-63
2023/06/10 05:24:56;;;;;;;10.03;8.97;;;;;;;16.37;84.48;98304.69;4990444;28;20286;-63
2023/06/10 05:27:24;;;;;;;9.67;8.77;;;;;;;16.37;86.31;98294.97;4991868;28;20238;-63
2023/06/10 05:29:51;;;;;;;9.70;8.70;;;;;;;16.36;86.70;98295.97;4994923;28;20239;-63
2023/06/10 05:32:17;;;;;;;9.77;8.80;;;;;;;16.39;87.00;98294.78;4992957;28;20258;-63
2023/06/10 05:34:51;;;;;;;9.40;8.40;;;;;;;16.43;88.27;98298.63;4987505;28;20230;-63
2023/06/10 05:37:18;;;;;;;11.53;8.53;;;;;;;16.51;88.53;98310.81;4988681;28;20583;-63
2023/06/10 05:39:49;;;;;;;8.80;8.00;;;;;;;16.78;87.82;98303.00;4989715;28;20233;-63
2023/06/10 05:42:16;;;;;;;9.50;8.50;;;;;;;17.20;85.82;98301.06;4988916;28;20225;-63
2023/06/10 05:44:49;;;;;;;8.80;7.90;;;;;;;17.61;82.80;98311.63;4989923;28;20670;-63
2023/06/10 05:47:15;;;;;;;9.47;8.50;;;;;;;17.94;79.51;98306.28;4993159;28;20704;-63
2023/06/10 05:50:09;;;;;;;9.53;8.17;;;;;;;18.20;78.41;98309.09;4991456;28;20252;-63
2023/06/10 05:52:36;;;;;;;9.10;8.10;;;;;;;18.47;76.37;98304.53;4992802;28;20231;-63
2023/06/10 05:55:03;;;;;;;12.30;9.57;;;;;;;18.58;74.77;98310.97;4990857;28;20229;-63
2023/06/10 05:57:30;;;;;;;10.87;9.70;;;;;;;18.77;72.23;98311.88;4980534;28;20697;-63
2023/06/10 05:59:56;;;;;;;10.50;9.40;;;;;;;18.82;71.67;98312.06;4991060;28;20738;-63
2023/06/10 06:02:23;;;;;;;9.77;8.77;;;;;;;18.87;72.58;98308.81;4995372;28;20226;-63
2023/06/10 06:04:50;;;;;;;9.93;8.47;;;;;;;19.07;72.57;98315.84;4989399;28;20230;-63
2023/06/10 06:07:20;;;;;;;10.17;9.10;;;;;;;19.23;72.15;98315.28;4992124;28;20244;-63
2023/06/10 06:09:49;;;;;;;9.93;8.93;;;;;;;19.40;71.53;98320.06;4990137;28;20233;-63
2023/06/10 06:12:16;;;;;;;10.23;9.00;;;;;;;19.58;71.21;98328.06;4993791;28;20239;-63
2023/06/10 06:14:46;;;;;;;10.63;8.63;;;;;;;19.70;70.32;98320.19;4993996;28;20735;-63
2023/06/10 06:17:13;;;;;;;12.43;9.20;;;;;;;19.77;69.72;98330.75;4992601;28;20293;-63
2023/06/10 06:19:39;;;;;;;11.63;9.67;;;;;;;19.84;67.50;98325.38;4991218;28;20259;-63
2023/06/10 06:22:06;;;;;;;12.73;10.33;;;;;;;19.88;66.27;98329.22;4987914;28;23365;-63
2023/06/10 06:24:34;;;;;;;15.73;9.67;;;;;;;19.97;66.72;98329.78;4991930;28;20237;-63
2023/06/10 06:27:00;;;;;;;10.50;9.47;;;;;;;20.13;66.11;98334.50;4993763;28;20232;-63
2023/06/10 06:29:29;;;;;;;14.73;10.07;;;;;;;20.33;65.66;98334.28;4987372;28;20744;-63
2023/06/10 06:31:56;;;;;;;11.00;9.53;;;;;;;20.48;65.20;98333.88;4991207;28;20234;-63
2023/06/10 06:34:22;;;;;;;10.13;8.77;;;;;;;20.70;66.20;98337.91;4989309;28;20231;-63
2023/06/10 06:36:49;;;;;;;9.40;8.40;;;;;;;20.84;65.85;98330.63;4990116;28;20327;-63
2023/06/10 06:39:17;;;;;;;9.27;8.37;;;;;;;20.99;65.41;98328.38;4974099;28;20227;-63
2023/06/10 06:41:45;;;;;;;9.77;8.63;;;;;;;21.07;62.54;98330.69;4993787;28;20242;-63
2023/06/10 06:44:11;;;;;;;10.57;9.10;;;;;;;20.97;63.63;98327.78;4988749;28;20630;-63
2023/06/10 06:46:39;;;;;;;9.70;8.73;;;;;;;21.12;62.98;98337.97;4991658;28;20579;-63
2023/06/10 06:49:06;;;;;;;10.80;9.27;;;;;;;21.23;62.12;98342.50;4991356;28;20237;-63
2023/06/10 06:51:33;;;;;;;10.20;9.20;;;;;;;21.30;60.41;98341.59;4993389;28;20248;-63
2023/06/10 06:53:59;;;;;;;13.07;10.57;;;;;;;21.40;59.15;98336.53;4991591;28;20647;-64
2023/06/10 06:56:28;;;;;;;10.30;9.03;;;;;;;21.33;59.11;98339.28;4993874;28;20292;-64
2023/06/10 06:58:55;;;;;;;10.07;8.57;;;;;;;21.40;59.71;98341.84;4994503;28;20582;-64
2023/06/10 07:01:22;;;;;;;10.30;8.90;;;;;;;21.40;59.27;98333.88;4990267;28;20251;-62
2023/06/10 07:03:49;;;;;;;9.90;8.90;;;;;;;21.43;62.12;98341.38;4992338;28;20233;-63
2023/06/10 07:06:15;;;;;;;11.60;9.37;;;;;;;21.56;60.25;98339.56;4993946;28;20301;-63
2023/06/10 07:08:42;;;;;;;10.37;9.27;;;;;;;21.68;60.13;98335.88;4994577;28;20302;-63
2023/06/10 07:11:09;;;;;;;11.60;9.07;;;;;;;21.76;61.41;98339.25;4987504;28;20249;-63
2023/06/10 07:13:35;;;;;;;9.43;8.43;;;;;;;21.97;60.37;98343.97;4995870;28;20235;-63
2023/06/10 07:16:04;;;;;;;10.07;9.07;;;;;;;22.08;60.07;98338.88;4993313;28;20291;-63
2023/06/10 07:18:30;;;;;;;9.80;8.80;;;;;;;22.20;57.31;98341.53;4998706;28;20302;-63
2023/06/10 07:20:57;;;;;;;14.40;8.77;;;;;;;22.22;57.32;98336.78;4994143;28;20648;-63
2023/06/10 07:23:23;;;;;;;12.03;8.97;;;;;;;22.21;58.03;98335.16;4996460;28;20300;-63
2023/06/10 07:25:50;;;;;;;10.20;9.17;;;;;;;22.25;60.09;98346.94;4990253;28;20735;-63
2023/06/10 07:28:17;;;;;;;10.30;9.30;;;;;;;22.47;57.88;98333.84;4997632;28;20233;-63
2023/06/10 07:30:43;;;;;;;10.93;8.60;;;;;;;22.34;57.95;98345.53;4993937;28;20234;-63
2023/06/10 07:33:11;;;;;;;9.57;8.43;;;;;;;22.53;60.76;98340.88;4994411;28;20235;-63
2023/06/10 07:35:38;;;;;;;9.23;7.87;;;;;;;22.76;57.50;98336.53;4974141;28;20586;-63
2023/06/10 07:38:04;;;;;;;9.47;8.47;;;;;;;22.88;58.68;98343.66;4995220;28;20563;-63
2023/06/10 07:40:31;;;;;;;13.27;8.30;;;;;;;23.02;54.10;98344.16;4994549;28;20629;-63
2023/06/10 07:42:57;;;;;;;8.27;6.33;;;;;;;23.15;52.42;98335.88;4989237;28;20244;-63
2023/06/10 07:45:25;;;;;;;9.87;8.17;;;;;;;23.29;53.32;98345.22;4997386;28;20235;-63
2023/06/10 07:47:51;;;;;;;9.13;8.17;;;;;;;23.23;54.57;98348.03;4991085;28;20217;-63
2023/06/10 07:50:19;;;;;;;7.93;7.13;;;;;;;23.33;54.05;98345.50;4994973;28;20229;-63
2023/06/10 07:52:46;;;;;;;8.23;7.30;;;;;;;23.39;53.99;98336.56;4995829;28;20248;-63
2023/06/10 07:55:12;;;;;;;9.20;7.30;;;;;;;23.53;53.39;98334.41;4992532;28;20636;-63
2023/06/10 07:57:39;;;;;;;8.63;7.73;;;;;;;23.66;53.16;98330.59;4994947;28;20229;-63
2023/06/10 08:00:08;;;;;;;10.97;7.90;;;;;;;23.91;53.47;98342.66;4992300;28;20237;-63
2023/06/10 08:02:40;;;;;;;8.73;7.90;;;;;;;24.00;54.74;98346.56;4998930;28;20251;-63
2023/06/10 08:05:08;;;;;;;10.33;7.80;;;;;;;24.08;53.62;98344.53;4983654;28;20696;-63
2023/06/10 08:07:35;;;;;;;8.37;7.40;;;;;;;24.14;53.30;98347.00;4994315;28;20225;-63
2023/06/10 08:10:03;;;;;;;12.10;7.77;;;;;;;24.32;52.65;98353.09;4988896;28;20223;-63
2023/06/10 08:12:31;;;;;;;8.57;6.73;;;;;;;24.46;50.02;98351.66;4988928;28;20241;-63
2023/06/10 08:14:57;;;;;;;8.90;7.10;;;;;;;24.45;49.68;98352.72;4992857;28;20231;-63
2023/06/10 08:17:24;;;;;;;9.47;8.00;;;;;;;24.40;51.79;98344.66;4995591;28;20232;-63
2023/06/10 08:19:50;;;;;;;8.17;7.37;;;;;;;24.39;52.56;98347.56;4993678;28;20257;-63
2023/06/10 08:22:17;;;;;;;7.73;7.03;;;;;;;24.64;50.75;98351.59;4995948;28;20294;-63
2023/06/10 08:24:51;;;;;;;7.77;6.77;;;;;;;24.74;50.44;98343.72;4991056;28;20582;-63
2023/06/10 08:27:17;;;;;;;7.47;6.83;;;;;;;25.00;48.50;98344.78;4990642;28;20240;-63
2023/06/10 08:29:49;;;;;;;6.90;6.20;;;;;;;25.11;49.79;98335.00;4981530;28;20719;-63
2023/06/10 08:32:15;;;;;;;5.13;4.70;;;;;;;25.20;46.77;98335.34;4993383;28;20226;-63
2023/06/10 08:35:08;;;;;;;5.40;4.87;;;;;;;25.34;44.80;98335.75;4990493;28;20297;-63
2023/06/10 08:37:34;;;;;;;5.40;4.60;;;;;;;25.19;41.98;98339.91;4993007;28;20307;-63
2023/06/10 08:40:03;;;;;;;4.40;4.00;;;;;;;25.06;41.83;98342.97;4975192;28;20310;-63
2023/06/10 08:42:35;;;;;;;4.53;4.13;;;;;;;25.18;41.48;98334.78;4989655;28;20246;-63
2023/06/10 08:45:03;;;;;;;4.33;3.93;;;;;;;25.20;41.52;98335.34;4995359;28;20228;-63
2023/06/10 08:47:31;;;;;;;4.37;3.97;;;;;;;25.19;41.68;98336.41;4989336;28;20238;-63
2023/06/10 08:50:03;;;;;;;4.57;4.17;;;;;;;25.39;42.13;98351.81;4973833;28;20674;-63
2023/06/10 08:52:36;;;;;;;4.33;3.90;;;;;;;25.50;40.20;98340.16;4976708;28;20812;-63
2023/06/10 08:55:12;;;;;;;6.17;3.90;;;;;;;25.55;40.18;98338.59;4988241;28;20321;-63
2023/06/10 08:57:38;;;;;;;4.70;4.20;;;;;;;25.54;39.87;98347.66;4994531;28;20625;-63
2023/06/10 09:00:07;;;;;;;4.10;3.70;;;;;;;25.51;39.80;98332.97;4987254;28;20236;-63
2023/06/10 09:02:35;;;;;;;4.50;3.80;;;;;;;25.59;39.76;98340.50;4992757;28;20317;-63
2023/06/10 09:05:02;;;;;;;6.17;4.30;;;;;;;25.61;39.56;98334.88;4992882;28;20241;-63
2023/06/10 09:07:34;;;;;;;4.43;4.03;;;;;;;25.57;40.14;98325.78;4993130;28;20697;-63
2023/06/10 09:10:02;;;;;;;5.10;4.10;;;;;;;25.84;40.66;98316.84;4990278;28;20232;-63
2023/06/10 09:12:30;;;;;;;6.23;4.37;;;;;;;25.97;39.76;98321.75;4990613;28;20700;-63
2023/06/10 09:14:57;;;;;;;3.73;3.43;;;;;;;25.93;38.56;98326.81;4991329;28;20234;-63
2023/06/10 09:17:24;;;;;;;4.03;3.63;;;;;;;25.97;39.25;98329.75;4988610;28;20578;-63
2023/06/10 09:19:53;;;;;;;5.23;3.77;;;;;;;26.09;39.05;98329.53;4990410;28;20225;-64
2023/06/10 09:22:20;;;;;;;4.27;3.80;;;;;;;26.43;39.17;98323.84;4993518;28;20248;-64
2023/06/10 09:24:49;;;;;;;5.03;3.70;;;;;;;26.67;38.17;98316.13;4990863;28;20244;-64
2023/06/10 09:27:16;;;;;;;4.13;3.73;;;;;;;26.95;37.79;98316.75;4993055;28;20232;-64
2023/06/10 09:30:10;;;;;;;4.40;4.00;;;;;;;27.14;36.67;98318.91;4990217;28;20241;-64
2023/06/10 09:32:40;;;;;;;4.50;4.10;;;;;;;27.09;36.88;98318.91;4989671;28;20245;-64
2023/06/10 09:35:11;;;;;;;8.57;3.88;;;;;;;26.94;36.99;98317.81;4985781;28;20325;-63
2023/06/10 09:37:39;;;;;;;4.87;4.10;;;;;;;27.31;37.09;98313.28;4992663;28;20235;-63
2023/06/10 09:40:10;;;;;;;4.10;3.70;;;;;;;27.55;36.53;98313.56;4992779;28;20602;-63
2023/06/10 09:42:39;;;;;;;4.45;4.00;;;;;;;27.72;37.62;98311.66;4993196;28;20233;-63
2023/06/10 09:45:08;;;;;;;4.55;4.15;;;;;;;27.38;36.02;98318.38;4991559;28;20234;-63
2023/06/10 09:47:36;;;;;;;4.43;3.90;;;;;;;26.73;37.20;98316.13;4974927;28;20230;-63
2023/06/10 09:50:03;;;;;;;5.07;4.57;;;;;;;26.72;37.84;98310.00;4990037;28;20294;-63
2023/06/10 09:52:30;;;;;;;5.45;4.60;;;;;;;26.54;39.01;98300.56;4991222;28;20228;-63
2023/06/10 09:55:01;;;;;;;4.90;4.10;;;;;;;26.65;38.76;98304.88;4990584;28;20286;-63
2023/06/10 09:57:33;;;;;;;4.97;4.40;;;;;;;26.91;37.90;98307.63;4989356;28;20230;-64
2023/06/10 10:00:04;;;;;;;5.93;4.30;;;;;;;27.47;37.51;98308.72;4990855;28;20236;-64
2023/06/10 10:02:46;;;;;;;4.90;3.97;;;;;;;27.87;36.89;98308.94;4990859;28;20246;-64
2023/06/10 10:05:15;;;;;;;3.83;3.42;;;;;;;27.52;35.50;98308.75;4989103;28;20241;-64
2023/06/10 10:07:41;;;;;;;3.78;3.40;;;;;;;27.58;35.34;98301.47;4995275;28;20325;-64
2023/06/10 10:10:09;;;;;;;4.97;3.88;;;;;;;27.08;36.09;98298.53;4974040;28;20222;-64
2023/06/10 10:12:37;;;;;;;3.57;3.20;;;;;;;26.83;36.14;98296.66;4992041;28;20229;-63
2023/06/10 10:15:07;;;;;;;4.73;3.73;;;;;;;26.99;37.66;98306.31;4987543;28;20675;-63
2023/06/10 10:17:35;;;;;;;3.85;3.53;;;;;;;27.43;35.40;98302.28;4993845;28;20241;-63
2023/06/10 10:20:05;;;;;;;5.13;3.67;;;;;;;27.35;36.75;98306.31;4985329;28;20891;-63
2023/06/10 10:22:36;;;;;;;4.47;4.07;;;;;;;27.43;35.59;98304.16;4987985;28;20406;-63
2023/06/10 10:25:06;;;;;;;4.68;3.30;;;;;;;27.33;36.75;98299.63;4990564;28;20711;-63
2023/06/10 10:27:41;;;;;;;6.30;3.47;;;;;;;27.13;35.94;98300.41;4997218;28;20227;-63
2023/06/10 10:30:12;;;;;;;3.92;3.58;;;;;;;27.09;36.85;98305.50;4995775;28;20221;-63
2023/06/10 10:32:48;;;;;;;3.75;3.45;;;;;;;26.98;36.71;98306.56;4996039;28;20243;-64
2023/06/10 10:35:19;;;;;;;3.60;3.30;;;;;;;27.15;36.18;98309.81;4992940;28;20236;-64
2023/06/10 10:37:46;;;;;;;3.83;3.10;;;;;;;27.55;35.67;98308.19;4997281;28;20233;-64
2023/06/10 10:40:14;;;;;;;4.43;3.10;;;;;;;27.93;35.81;98307.84;4992283;28;20599;-64
2023/06/10 10:42:41;;;;;;;3.72;3.28;;;;;;;28.27;34.16;98306.41;4996469;28;20692;-64
2023/06/10 10:45:10;;;;;;;3.60;3.15;;;;;;;28.43;36.71;98302.56;4993300;28;20243;-64
2023/06/10 10:47:39;;;;;;;4.40;3.38;;;;;;;28.67;35.11;98296.50;4994546;28;20633;-64
2023/06/10 10:50:15;;;;;;;4.53;3.42;;;;;;;28.76;34.38;98310.19;4993964;28;20210;-64
2023/06/10 10:52:54;;;;;;;3.97;3.58;;;;;;;28.62;33.18;98285.78;4988440;28;20303;-64
2023/06/10 10:55:21;;;;;;;5.65;3.75;;;;;;;28.65;33.63;98304.03;4992068;28;20338;-64
2023/06/10 10:57:55;;;;;;;3.72;3.42;;;;;;;28.31;33.99;98299.41;4992097;28;20631;-64
2023/06/10 11:00:30;;;;;;;4.00;3.70;;;;;;;28.36;34.15;98301.25;4991213;28;20257;-64
2023/06/10 11:02:59;;;;;;;4.50;4.10;;;;;;;28.38;33.98;98297.22;4991843;28;20328;-64
2023/06/10 11:05:36;;;;;;;5.22;3.90;;;;;;;28.37;33.52;98306.34;4994841;28;20231;-64
2023/06/10 11:08:04;;;;;;;4.70;4.00;;;;;;;27.89;34.79;98288.00;4993538;28;20247;-64
2023/06/10 11:10:32;;;;;;;4.20;3.80;;;;;;;27.75;35.60;98295.81;4996406;28;20230;-64
2023/06/10 11:12:59;;;;;;;4.78;4.35;;;;;;;27.91;34.39;98301.13;4992359;28;20235;-64
2023/06/10 11:15:27;;;;;;;4.05;3.75;;;;;;;28.16;35.33;98288.72;5000369;28;20232;-63
2023/06/10 11:18:11;;;;;;;6.38;3.60;;;;;;;28.28;34.81;98290.00;4993377;28;20231;-63
2023/06/10 11:20:46;;;;;;;5.22;3.97;;;;;;;28.56;35.82;98284.25;4996319;28;20786;-63
2023/06/10 11:23:31;;;;;;;4.57;3.97;;;;;;;28.31;34.19;98287.84;4996993;28;20231;-63
2023/06/10 11:26:17;;;;;;;4.38;3.70;;;;;;;28.79;35.03;98296.19;4993020;28;20284;-63
2023/06/10 11:29:16;;;;;;;4.18;3.80;;;;;;;28.89;33.63;98292.63;4994447;28;20789;-63
2023/06/10 11:31:47;;;;;;;4.40;3.60;;;;;;;28.60;33.50;98293.34;4993126;28;20595;-63
2023/06/10 11:34:14;;;;;;;4.18;3.75;;;;;;;28.46;33.09;98292.34;4987913;28;20232;-63
2023/06/10 11:36:45;;;;;;;5.55;3.90;;;;;;;28.30;33.64;98284.38;4994754;28;20242;-64
2023/06/10 11:39:13;;;;;;;4.35;3.60;;;;;;;28.67;33.35;98288.44;4994849;28;20237;-64